sensor_id;sensor_type;location;lat;lon;timestamp;P1;durP1;ratioP1;P2;durP2;ratioP2
28266;SDS011;15525;45.568;5.448;2022-08-05T00:01:02;3.00;;;2.70;;
28266;SDS011;15525;45.568;5.448;2022-08-05T00:03:35;3.70;;;2.80;;
28266;SDS011;15525;45.568;5.448;2022-08-05T00:06:01;3.22;;;2.70;;
28266;SDS011;15525;45.568;5.448;2022-08-05T00:08:26;3.20;;;2.85;;
28266;SDS011;15525;45.568;5.448;2022-08-05T00:10:52;2.83;;;2.63;;
28266;SDS011;15525;45.568;5.448;2022-08-05T00:13:17;3.53;;;2.80;;
28266;SDS011;15525;45.568;5.448;2022-08-05T00:15:42;4.88;;;3.00;;
28266;SDS011;15525;45.568;5.448;2022-08-05T00:18:08;4.50;;;2.92;;
28266;SDS011;15525;45.568;5.448;2022-08-05T00:20:33;4.30;;;3.13;;
28266;SDS011;15525;45.568;5.448;2022-08-05T00:22:59;3.08;;;2.78;;
28266;SDS011;15525;45.568;5.448;2022-08-05T00:25:24;2.95;;;2.60;;
28266;SDS011;15525;45.568;5.448;2022-08-05T00:27:49;3.78;;;2.92;;
28266;SDS011;15525;45.568;5.448;2022-08-05T00:30:15;2.78;;;2.40;;
28266;SDS011;15525;45.568;5.448;2022-08-05T00:32:40;2.70;;;2.50;;
28266;SDS011;15525;45.568;5.448;2022-08-05T00:35:06;3.55;;;2.70;;
28266;SDS011;15525;45.568;5.448;2022-08-05T00:37:32;2.83;;;2.60;;
28266;SDS011;15525;45.568;5.448;2022-08-05T00:39:57;3.75;;;2.60;;
28266;SDS011;15525;45.568;5.448;2022-08-05T00:42:30;3.25;;;2.65;;
28266;SDS011;15525;45.568;5.448;2022-08-05T00:45:00;3.88;;;2.88;;
28266;SDS011;15525;45.568;5.448;2022-08-05T00:47:26;4.00;;;3.00;;
28266;SDS011;15525;45.568;5.448;2022-08-05T00:49:52;4.25;;;2.92;;
28266;SDS011;15525;45.568;5.448;2022-08-05T00:52:18;2.60;;;2.40;;
28266;SDS011;15525;45.568;5.448;2022-08-05T00:54:44;2.85;;;2.65;;
28266;SDS011;15525;45.568;5.448;2022-08-05T00:57:09;3.30;;;2.80;;
28266;SDS011;15525;45.568;5.448;2022-08-05T00:59:35;3.75;;;2.72;;
28266;SDS011;15525;45.568;5.448;2022-08-05T01:02:00;3.28;;;2.55;;
28266;SDS011;15525;45.568;5.448;2022-08-05T01:04:25;3.70;;;2.58;;
28266;SDS011;15525;45.568;5.448;2022-08-05T01:06:51;3.25;;;2.75;;
28266;SDS011;15525;45.568;5.448;2022-08-05T01:09:16;2.95;;;2.60;;
28266;SDS011;15525;45.568;5.448;2022-08-05T01:11:42;3.38;;;2.58;;
28266;SDS011;15525;45.568;5.448;2022-08-05T01:15:08;2.97;;;2.70;;
28266;SDS011;15525;45.568;5.448;2022-08-05T01:17:13;3.42;;;2.55;;
28266;SDS011;15525;45.568;5.448;2022-08-05T01:19:50;2.67;;;2.47;;
28266;SDS011;15525;45.568;5.448;2022-08-05T01:28:20;3.05;;;2.58;;
28266;SDS011;15525;45.568;5.448;2022-08-05T01:30:55;2.75;;;2.33;;
28266;SDS011;15525;45.568;5.448;2022-08-05T01:33:34;3.00;;;2.70;;
28266;SDS011;15525;45.568;5.448;2022-08-05T01:36:12;2.97;;;2.67;;
28266;SDS011;15525;45.568;5.448;2022-08-05T01:38:41;3.00;;;2.70;;
28266;SDS011;15525;45.568;5.448;2022-08-05T01:41:10;2.97;;;2.58;;
28266;SDS011;15525;45.568;5.448;2022-08-05T01:43:38;3.17;;;2.33;;
28266;SDS011;15525;45.568;5.448;2022-08-05T01:46:05;3.55;;;2.53;;
28266;SDS011;15525;45.568;5.448;2022-08-05T01:48:31;3.15;;;2.38;;
28266;SDS011;15525;45.568;5.448;2022-08-05T01:51:00;2.55;;;2.30;;
28266;SDS011;15525;45.568;5.448;2022-08-05T01:53:28;3.10;;;2.80;;
28266;SDS011;15525;45.568;5.448;2022-08-05T01:55:58;3.13;;;2.60;;
28266;SDS011;15525;45.568;5.448;2022-08-05T01:58:26;3.08;;;2.58;;
28266;SDS011;15525;45.568;5.448;2022-08-05T02:00:53;2.67;;;2.42;;
28266;SDS011;15525;45.568;5.448;2022-08-05T02:03:28;3.45;;;3.13;;
28266;SDS011;15525;45.568;5.448;2022-08-05T02:06:03;3.35;;;2.60;;
28266;SDS011;15525;45.568;5.448;2022-08-05T02:08:31;3.45;;;2.30;;
28266;SDS011;15525;45.568;5.448;2022-08-05T02:11:10;3.22;;;2.88;;
28266;SDS011;15525;45.568;5.448;2022-08-05T02:13:38;3.85;;;2.80;;
28266;SDS011;15525;45.568;5.448;2022-08-05T02:16:27;5.53;;;2.40;;
28266;SDS011;15525;45.568;5.448;2022-08-05T02:19:00;4.80;;;2.45;;
28266;SDS011;15525;45.568;5.448;2022-08-05T02:21:30;3.13;;;2.50;;
28266;SDS011;15525;45.568;5.448;2022-08-05T02:24:05;2.90;;;2.70;;
28266;SDS011;15525;45.568;5.448;2022-08-05T02:26:44;4.05;;;2.63;;
28266;SDS011;15525;45.568;5.448;2022-08-05T02:29:11;3.58;;;2.55;;
28266;SDS011;15525;45.568;5.448;2022-08-05T02:31:40;3.97;;;3.25;;
28266;SDS011;15525;45.568;5.448;2022-08-05T02:34:09;2.70;;;2.50;;
28266;SDS011;15525;45.568;5.448;2022-08-05T02:36:38;6.30;;;2.83;;
28266;SDS011;15525;45.568;5.448;2022-08-05T02:39:07;5.10;;;2.90;;
28266;SDS011;15525;45.568;5.448;2022-08-05T02:41:34;4.43;;;3.28;;
28266;SDS011;15525;45.568;5.448;2022-08-05T02:44:02;2.92;;;2.70;;
28266;SDS011;15525;45.568;5.448;2022-08-05T02:46:32;3.42;;;2.60;;
28266;SDS011;15525;45.568;5.448;2022-08-05T02:48:59;6.47;;;2.97;;
28266;SDS011;15525;45.568;5.448;2022-08-05T02:51:25;3.10;;;2.88;;
28266;SDS011;15525;45.568;5.448;2022-08-05T02:53:51;3.33;;;2.60;;
28266;SDS011;15525;45.568;5.448;2022-08-05T02:56:18;5.28;;;2.58;;
28266;SDS011;15525;45.568;5.448;2022-08-05T02:58:44;5.30;;;3.20;;
28266;SDS011;15525;45.568;5.448;2022-08-05T03:01:12;3.47;;;3.15;;
28266;SDS011;15525;45.568;5.448;2022-08-05T03:03:41;3.65;;;2.70;;
28266;SDS011;15525;45.568;5.448;2022-08-05T03:06:09;3.03;;;2.72;;
28266;SDS011;15525;45.568;5.448;2022-08-05T03:08:36;3.13;;;2.80;;
28266;SDS011;15525;45.568;5.448;2022-08-05T03:11:03;3.28;;;2.88;;
28266;SDS011;15525;45.568;5.448;2022-08-05T03:13:28;3.67;;;2.90;;
28266;SDS011;15525;45.568;5.448;2022-08-05T03:15:54;5.20;;;2.83;;
28266;SDS011;15525;45.568;5.448;2022-08-05T03:18:19;2.90;;;2.60;;
28266;SDS011;15525;45.568;5.448;2022-08-05T03:20:45;3.28;;;2.88;;
28266;SDS011;15525;45.568;5.448;2022-08-05T03:23:10;3.08;;;2.67;;
28266;SDS011;15525;45.568;5.448;2022-08-05T03:25:37;3.80;;;3.05;;
28266;SDS011;15525;45.568;5.448;2022-08-05T03:28:05;4.65;;;2.80;;
28266;SDS011;15525;45.568;5.448;2022-08-05T03:30:31;4.38;;;2.60;;
28266;SDS011;15525;45.568;5.448;2022-08-05T03:33:01;4.63;;;3.08;;
28266;SDS011;15525;45.568;5.448;2022-08-05T03:35:28;5.10;;;3.08;;
28266;SDS011;15525;45.568;5.448;2022-08-05T03:37:55;3.05;;;2.60;;
28266;SDS011;15525;45.568;5.448;2022-08-05T03:40:22;4.38;;;2.80;;
28266;SDS011;15525;45.568;5.448;2022-08-05T03:42:48;3.35;;;2.70;;
28266;SDS011;15525;45.568;5.448;2022-08-05T03:45:13;3.85;;;2.63;;
28266;SDS011;15525;45.568;5.448;2022-08-05T03:47:39;6.38;;;3.70;;
28266;SDS011;15525;45.568;5.448;2022-08-05T03:50:04;3.33;;;2.80;;
28266;SDS011;15525;45.568;5.448;2022-08-05T03:52:35;3.80;;;3.38;;
28266;SDS011;15525;45.568;5.448;2022-08-05T03:55:07;3.45;;;3.05;;
28266;SDS011;15525;45.568;5.448;2022-08-05T03:57:39;3.23;;;2.93;;
28266;SDS011;15525;45.568;5.448;2022-08-05T04:00:06;3.40;;;2.95;;
28266;SDS011;15525;45.568;5.448;2022-08-05T04:02:34;5.60;;;3.20;;
28266;SDS011;15525;45.568;5.448;2022-08-05T04:05:01;7.68;;;4.22;;
28266;SDS011;15525;45.568;5.448;2022-08-05T04:07:28;4.00;;;3.33;;
28266;SDS011;15525;45.568;5.448;2022-08-05T04:09:55;3.88;;;3.05;;
28266;SDS011;15525;45.568;5.448;2022-08-05T04:12:22;5.18;;;3.28;;
28266;SDS011;15525;45.568;5.448;2022-08-05T04:14:48;4.28;;;3.10;;
28266;SDS011;15525;45.568;5.448;2022-08-05T04:17:14;3.08;;;2.78;;
28266;SDS011;15525;45.568;5.448;2022-08-05T04:19:44;4.20;;;3.13;;
28266;SDS011;15525;45.568;5.448;2022-08-05T04:22:10;6.38;;;3.13;;
28266;SDS011;15525;45.568;5.448;2022-08-05T04:24:37;6.50;;;3.00;;
28266;SDS011;15525;45.568;5.448;2022-08-05T04:27:06;5.85;;;3.22;;
28266;SDS011;15525;45.568;5.448;2022-08-05T04:29:31;6.57;;;3.47;;
28266;SDS011;15525;45.568;5.448;2022-08-05T04:31:57;7.10;;;2.92;;
28266;SDS011;15525;45.568;5.448;2022-08-05T04:34:22;5.95;;;3.30;;
28266;SDS011;15525;45.568;5.448;2022-08-05T04:36:48;4.90;;;3.08;;
28266;SDS011;15525;45.568;5.448;2022-08-05T04:39:13;5.55;;;3.35;;
28266;SDS011;15525;45.568;5.448;2022-08-05T04:41:39;5.70;;;3.40;;
28266;SDS011;15525;45.568;5.448;2022-08-05T04:44:05;5.35;;;3.53;;
28266;SDS011;15525;45.568;5.448;2022-08-05T04:46:30;6.70;;;3.08;;
28266;SDS011;15525;45.568;5.448;2022-08-05T04:48:56;6.82;;;3.22;;
28266;SDS011;15525;45.568;5.448;2022-08-05T04:51:21;9.30;;;3.80;;
28266;SDS011;15525;45.568;5.448;2022-08-05T04:53:46;7.13;;;3.53;;
28266;SDS011;15525;45.568;5.448;2022-08-05T04:56:12;11.48;;;3.10;;
28266;SDS011;15525;45.568;5.448;2022-08-05T04:58:38;12.10;;;3.78;;
28266;SDS011;15525;45.568;5.448;2022-08-05T05:01:04;13.98;;;3.83;;
28266;SDS011;15525;45.568;5.448;2022-08-05T05:03:30;13.68;;;3.70;;
28266;SDS011;15525;45.568;5.448;2022-08-05T05:05:56;12.07;;;3.50;;
28266;SDS011;15525;45.568;5.448;2022-08-05T05:08:21;10.35;;;3.60;;
28266;SDS011;15525;45.568;5.448;2022-08-05T05:10:47;24.20;;;3.63;;
28266;SDS011;15525;45.568;5.448;2022-08-05T05:13:13;15.48;;;3.75;;
28266;SDS011;15525;45.568;5.448;2022-08-05T05:15:41;19.92;;;4.10;;
28266;SDS011;15525;45.568;5.448;2022-08-05T05:18:07;18.58;;;4.20;;
28266;SDS011;15525;45.568;5.448;2022-08-05T05:20:33;18.70;;;4.60;;
28266;SDS011;15525;45.568;5.448;2022-08-05T05:23:00;17.90;;;4.38;;
28266;SDS011;15525;45.568;5.448;2022-08-05T05:25:28;21.20;;;4.00;;
28266;SDS011;15525;45.568;5.448;2022-08-05T05:27:54;14.65;;;4.35;;
28266;SDS011;15525;45.568;5.448;2022-08-05T05:30:20;18.90;;;4.28;;
28266;SDS011;15525;45.568;5.448;2022-08-05T05:32:47;16.48;;;4.25;;
28266;SDS011;15525;45.568;5.448;2022-08-05T05:35:12;13.15;;;4.00;;
28266;SDS011;15525;45.568;5.448;2022-08-05T05:37:51;16.20;;;4.38;;
28266;SDS011;15525;45.568;5.448;2022-08-05T05:40:18;14.73;;;3.78;;
28266;SDS011;15525;45.568;5.448;2022-08-05T05:42:45;12.68;;;3.72;;
28266;SDS011;15525;45.568;5.448;2022-08-05T05:45:11;9.75;;;3.67;;
28266;SDS011;15525;45.568;5.448;2022-08-05T05:47:36;13.70;;;3.35;;
28266;SDS011;15525;45.568;5.448;2022-08-05T05:50:02;9.75;;;4.00;;
28266;SDS011;15525;45.568;5.448;2022-08-05T05:52:28;9.27;;;3.60;;
28266;SDS011;15525;45.568;5.448;2022-08-05T05:54:53;11.60;;;3.70;;
28266;SDS011;15525;45.568;5.448;2022-08-05T05:57:19;14.52;;;3.80;;
28266;SDS011;15525;45.568;5.448;2022-08-05T05:59:45;9.23;;;3.80;;
28266;SDS011;15525;45.568;5.448;2022-08-05T06:02:10;8.50;;;4.30;;
28266;SDS011;15525;45.568;5.448;2022-08-05T06:04:36;18.67;;;4.13;;
28266;SDS011;15525;45.568;5.448;2022-08-05T06:07:01;16.63;;;4.10;;
28266;SDS011;15525;45.568;5.448;2022-08-05T06:09:26;8.85;;;3.75;;
28266;SDS011;15525;45.568;5.448;2022-08-05T06:11:52;9.70;;;3.72;;
28266;SDS011;15525;45.568;5.448;2022-08-05T06:14:18;23.40;;;4.18;;
28266;SDS011;15525;45.568;5.448;2022-08-05T06:16:43;15.40;;;4.03;;
28266;SDS011;15525;45.568;5.448;2022-08-05T06:19:09;17.00;;;4.97;;
28266;SDS011;15525;45.568;5.448;2022-08-05T06:21:35;13.32;;;4.07;;
28266;SDS011;15525;45.568;5.448;2022-08-05T06:24:01;17.42;;;3.88;;
28266;SDS011;15525;45.568;5.448;2022-08-05T06:26:26;11.77;;;4.18;;
28266;SDS011;15525;45.568;5.448;2022-08-05T06:28:51;12.15;;;3.90;;
28266;SDS011;15525;45.568;5.448;2022-08-05T06:31:17;14.70;;;4.18;;
28266;SDS011;15525;45.568;5.448;2022-08-05T06:33:42;7.65;;;3.45;;
28266;SDS011;15525;45.568;5.448;2022-08-05T06:36:08;8.75;;;3.70;;
28266;SDS011;15525;45.568;5.448;2022-08-05T06:38:33;8.32;;;3.47;;
28266;SDS011;15525;45.568;5.448;2022-08-05T06:40:59;7.93;;;3.58;;
28266;SDS011;15525;45.568;5.448;2022-08-05T06:43:24;4.38;;;3.92;;
28266;SDS011;15525;45.568;5.448;2022-08-05T06:45:50;6.47;;;3.92;;
28266;SDS011;15525;45.568;5.448;2022-08-05T06:48:15;5.53;;;3.67;;
28266;SDS011;15525;45.568;5.448;2022-08-05T06:50:40;6.57;;;4.00;;
28266;SDS011;15525;45.568;5.448;2022-08-05T06:53:06;6.60;;;3.90;;
28266;SDS011;15525;45.568;5.448;2022-08-05T06:55:31;5.97;;;4.25;;
28266;SDS011;15525;45.568;5.448;2022-08-05T06:57:57;6.90;;;4.22;;
28266;SDS011;15525;45.568;5.448;2022-08-05T07:00:22;7.68;;;4.32;;
28266;SDS011;15525;45.568;5.448;2022-08-05T07:02:48;6.22;;;4.45;;
28266;SDS011;15525;45.568;5.448;2022-08-05T07:05:14;5.43;;;4.60;;
28266;SDS011;15525;45.568;5.448;2022-08-05T07:07:40;6.97;;;4.18;;
28266;SDS011;15525;45.568;5.448;2022-08-05T07:10:06;15.00;;;4.57;;
28266;SDS011;15525;45.568;5.448;2022-08-05T07:12:32;6.90;;;4.38;;
28266;SDS011;15525;45.568;5.448;2022-08-05T07:15:16;9.13;;;4.72;;
28266;SDS011;15525;45.568;5.448;2022-08-05T07:18:01;9.90;;;4.82;;
28266;SDS011;15525;45.568;5.448;2022-08-05T07:20:26;7.63;;;5.45;;
28266;SDS011;15525;45.568;5.448;2022-08-05T07:22:51;6.53;;;5.53;;
28266;SDS011;15525;45.568;5.448;2022-08-05T07:25:17;7.05;;;5.53;;
28266;SDS011;15525;45.568;5.448;2022-08-05T07:27:42;7.53;;;5.40;;
28266;SDS011;15525;45.568;5.448;2022-08-05T07:30:08;6.43;;;5.28;;
28266;SDS011;15525;45.568;5.448;2022-08-05T07:32:37;6.75;;;5.93;;
28266;SDS011;15525;45.568;5.448;2022-08-05T07:35:06;5.57;;;5.07;;
28266;SDS011;15525;45.568;5.448;2022-08-05T07:37:33;6.38;;;5.45;;
28266;SDS011;15525;45.568;5.448;2022-08-05T07:39:58;6.32;;;5.72;;
28266;SDS011;15525;45.568;5.448;2022-08-05T07:42:24;10.27;;;5.78;;
28266;SDS011;15525;45.568;5.448;2022-08-05T07:44:49;6.57;;;5.63;;
28266;SDS011;15525;45.568;5.448;2022-08-05T07:47:15;8.50;;;6.00;;
28266;SDS011;15525;45.568;5.448;2022-08-05T07:49:40;7.20;;;5.63;;
28266;SDS011;15525;45.568;5.448;2022-08-05T07:52:06;8.73;;;6.38;;
28266;SDS011;15525;45.568;5.448;2022-08-05T07:54:31;6.45;;;5.85;;
28266;SDS011;15525;45.568;5.448;2022-08-05T07:56:56;6.47;;;5.88;;
28266;SDS011;15525;45.568;5.448;2022-08-05T07:59:22;7.45;;;6.10;;
28266;SDS011;15525;45.568;5.448;2022-08-05T08:01:47;6.70;;;6.07;;
28266;SDS011;15525;45.568;5.448;2022-08-05T08:04:12;8.00;;;5.93;;
28266;SDS011;15525;45.568;5.448;2022-08-05T08:06:38;8.95;;;5.97;;
28266;SDS011;15525;45.568;5.448;2022-08-05T08:09:03;6.85;;;5.57;;
28266;SDS011;15525;45.568;5.448;2022-08-05T08:11:29;7.05;;;5.38;;
28266;SDS011;15525;45.568;5.448;2022-08-05T08:13:54;6.10;;;5.50;;
28266;SDS011;15525;45.568;5.448;2022-08-05T08:16:20;6.45;;;5.25;;
28266;SDS011;15525;45.568;5.448;2022-08-05T08:18:45;5.70;;;4.75;;
28266;SDS011;15525;45.568;5.448;2022-08-05T08:21:10;5.57;;;5.07;;
28266;SDS011;15525;45.568;5.448;2022-08-05T08:23:36;5.88;;;5.22;;
28266;SDS011;15525;45.568;5.448;2022-08-05T08:26:01;7.22;;;5.20;;
28266;SDS011;15525;45.568;5.448;2022-08-05T08:28:27;5.93;;;5.22;;
28266;SDS011;15525;45.568;5.448;2022-08-05T08:30:53;6.25;;;5.25;;
28266;SDS011;15525;45.568;5.448;2022-08-05T08:33:18;6.13;;;5.00;;
28266;SDS011;15525;45.568;5.448;2022-08-05T08:35:44;6.72;;;4.93;;
28266;SDS011;15525;45.568;5.448;2022-08-05T08:38:09;5.95;;;5.15;;
28266;SDS011;15525;45.568;5.448;2022-08-05T08:40:35;8.27;;;5.10;;
28266;SDS011;15525;45.568;5.448;2022-08-05T08:43:01;8.90;;;4.72;;
28266;SDS011;15525;45.568;5.448;2022-08-05T08:45:28;6.30;;;4.82;;
28266;SDS011;15525;45.568;5.448;2022-08-05T08:47:55;5.95;;;4.85;;
28266;SDS011;15525;45.568;5.448;2022-08-05T08:50:23;6.57;;;5.03;;
28266;SDS011;15525;45.568;5.448;2022-08-05T08:52:49;5.25;;;4.75;;
28266;SDS011;15525;45.568;5.448;2022-08-05T08:55:18;6.63;;;4.80;;
28266;SDS011;15525;45.568;5.448;2022-08-05T08:57:45;5.28;;;4.32;;
28266;SDS011;15525;45.568;5.448;2022-08-05T09:00:12;5.90;;;5.10;;
28266;SDS011;15525;45.568;5.448;2022-08-05T09:02:38;5.07;;;4.57;;
28266;SDS011;15525;45.568;5.448;2022-08-05T09:05:04;6.03;;;4.88;;
28266;SDS011;15525;45.568;5.448;2022-08-05T09:07:30;8.35;;;5.07;;
28266;SDS011;15525;45.568;5.448;2022-08-05T09:09:56;6.22;;;4.85;;
28266;SDS011;15525;45.568;5.448;2022-08-05T09:12:21;5.63;;;4.88;;
28266;SDS011;15525;45.568;5.448;2022-08-05T09:14:47;5.60;;;4.72;;
28266;SDS011;15525;45.568;5.448;2022-08-05T09:17:12;5.40;;;4.90;;
28266;SDS011;15525;45.568;5.448;2022-08-05T09:19:38;8.30;;;5.28;;
28266;SDS011;15525;45.568;5.448;2022-08-05T09:22:04;6.35;;;4.88;;
28266;SDS011;15525;45.568;5.448;2022-08-05T09:24:29;5.78;;;5.10;;
28266;SDS011;15525;45.568;5.448;2022-08-05T09:26:55;6.75;;;4.90;;
28266;SDS011;15525;45.568;5.448;2022-08-05T09:29:41;7.40;;;5.15;;
28266;SDS011;15525;45.568;5.448;2022-08-05T09:32:10;5.45;;;4.95;;
28266;SDS011;15525;45.568;5.448;2022-08-05T09:34:49;5.85;;;5.07;;
28266;SDS011;15525;45.568;5.448;2022-08-05T09:37:23;5.63;;;5.10;;
28266;SDS011;15525;45.568;5.448;2022-08-05T09:39:49;6.13;;;5.10;;
28266;SDS011;15525;45.568;5.448;2022-08-05T09:42:16;6.55;;;5.30;;
28266;SDS011;15525;45.568;5.448;2022-08-05T09:44:46;5.80;;;5.10;;
28266;SDS011;15525;45.568;5.448;2022-08-05T09:49:47;5.70;;;5.13;;
28266;SDS011;15525;45.568;5.448;2022-08-05T09:52:16;7.00;;;4.70;;
28266;SDS011;15525;45.568;5.448;2022-08-05T09:54:52;5.60;;;5.13;;
28266;SDS011;15525;45.568;5.448;2022-08-05T10:00:12;5.80;;;5.20;;
28266;SDS011;15525;45.568;5.448;2022-08-05T10:02:43;5.82;;;5.15;;
28266;SDS011;15525;45.568;5.448;2022-08-05T10:05:12;8.80;;;5.60;;
28266;SDS011;15525;45.568;5.448;2022-08-05T10:13:08;5.97;;;5.35;;
28266;SDS011;15525;45.568;5.448;2022-08-05T10:15:35;10.07;;;5.93;;
28266;SDS011;15525;45.568;5.448;2022-08-05T10:20:43;7.55;;;5.55;;
28266;SDS011;15525;45.568;5.448;2022-08-05T10:23:20;6.93;;;5.63;;
28266;SDS011;15525;45.568;5.448;2022-08-05T10:25:48;6.10;;;5.45;;
28266;SDS011;15525;45.568;5.448;2022-08-05T10:28:13;9.27;;;5.40;;
28266;SDS011;15525;45.568;5.448;2022-08-05T10:30:40;7.22;;;5.40;;
28266;SDS011;15525;45.568;5.448;2022-08-05T10:33:06;8.30;;;5.72;;
28266;SDS011;15525;45.568;5.448;2022-08-05T10:35:32;7.28;;;5.90;;
28266;SDS011;15525;45.568;5.448;2022-08-05T10:37:59;7.13;;;5.85;;
28266;SDS011;15525;45.568;5.448;2022-08-05T10:40:36;8.50;;;5.90;;
28266;SDS011;15525;45.568;5.448;2022-08-05T10:45:39;7.65;;;5.25;;
28266;SDS011;15525;45.568;5.448;2022-08-05T10:53:52;5.90;;;5.40;;
28266;SDS011;15525;45.568;5.448;2022-08-05T10:59:00;6.57;;;5.57;;
28266;SDS011;15525;45.568;5.448;2022-08-05T11:01:33;7.45;;;5.68;;
28266;SDS011;15525;45.568;5.448;2022-08-05T11:04:05;6.25;;;5.65;;
28266;SDS011;15525;45.568;5.448;2022-08-05T11:06:31;6.95;;;5.70;;
28266;SDS011;15525;45.568;5.448;2022-08-05T11:09:10;5.97;;;5.22;;
28266;SDS011;15525;45.568;5.448;2022-08-05T11:11:46;6.47;;;5.40;;
28266;SDS011;15525;45.568;5.448;2022-08-05T11:14:19;6.53;;;5.68;;
28266;SDS011;15525;45.568;5.448;2022-08-05T11:19:51;6.53;;;5.82;;
28266;SDS011;15525;45.568;5.448;2022-08-05T11:22:37;6.03;;;5.47;;
28266;SDS011;15525;45.568;5.448;2022-08-05T11:30:55;7.95;;;5.72;;
28266;SDS011;15525;45.568;5.448;2022-08-05T11:36:11;8.93;;;5.63;;
28266;SDS011;15525;45.568;5.448;2022-08-05T11:43:35;7.28;;;6.53;;
28266;SDS011;15525;45.568;5.448;2022-08-05T11:46:01;8.60;;;6.10;;
28266;SDS011;15525;45.568;5.448;2022-08-05T11:48:27;6.28;;;5.78;;
28266;SDS011;15525;45.568;5.448;2022-08-05T11:50:53;8.00;;;5.75;;
28266;SDS011;15525;45.568;5.448;2022-08-05T11:53:19;6.50;;;5.88;;
28266;SDS011;15525;45.568;5.448;2022-08-05T11:55:55;6.43;;;5.85;;
28266;SDS011;15525;45.568;5.448;2022-08-05T12:03:43;8.80;;;5.70;;
28266;SDS011;15525;45.568;5.448;2022-08-05T12:06:12;8.23;;;6.22;;
28266;SDS011;15525;45.568;5.448;2022-08-05T12:08:43;6.85;;;5.97;;
28266;SDS011;15525;45.568;5.448;2022-08-05T12:11:16;7.28;;;6.00;;
28266;SDS011;15525;45.568;5.448;2022-08-05T12:14:00;8.02;;;6.00;;
28266;SDS011;15525;45.568;5.448;2022-08-05T12:18:55;8.27;;;6.45;;
28266;SDS011;15525;45.568;5.448;2022-08-05T12:24:03;7.13;;;6.53;;
28266;SDS011;15525;45.568;5.448;2022-08-05T12:26:37;7.63;;;6.70;;
28266;SDS011;15525;45.568;5.448;2022-08-05T12:29:21;11.07;;;6.43;;
28266;SDS011;15525;45.568;5.448;2022-08-05T12:31:54;7.50;;;6.60;;
28266;SDS011;15525;45.568;5.448;2022-08-05T12:34:22;7.38;;;6.68;;
28266;SDS011;15525;45.568;5.448;2022-08-05T12:36:56;7.70;;;7.00;;
28266;SDS011;15525;45.568;5.448;2022-08-05T12:39:23;8.48;;;6.78;;
28266;SDS011;15525;45.568;5.448;2022-08-05T12:41:50;12.65;;;7.38;;
28266;SDS011;15525;45.568;5.448;2022-08-05T12:44:20;7.57;;;6.78;;
28266;SDS011;15525;45.568;5.448;2022-08-05T12:46:50;9.55;;;6.65;;
28266;SDS011;15525;45.568;5.448;2022-08-05T12:49:18;7.57;;;6.88;;
28266;SDS011;15525;45.568;5.448;2022-08-05T12:51:51;9.02;;;6.53;;
28266;SDS011;15525;45.568;5.448;2022-08-05T12:54:20;9.27;;;7.28;;
28266;SDS011;15525;45.568;5.448;2022-08-05T12:56:51;8.25;;;6.68;;
28266;SDS011;15525;45.568;5.448;2022-08-05T13:02:07;7.72;;;7.03;;
28266;SDS011;15525;45.568;5.448;2022-08-05T13:04:35;8.35;;;6.97;;
28266;SDS011;15525;45.568;5.448;2022-08-05T13:07:04;7.95;;;7.25;;
28266;SDS011;15525;45.568;5.448;2022-08-05T13:09:31;7.22;;;6.47;;
28266;SDS011;15525;45.568;5.448;2022-08-05T13:12:05;10.10;;;6.60;;
28266;SDS011;15525;45.568;5.448;2022-08-05T13:14:35;7.70;;;6.75;;
28266;SDS011;15525;45.568;5.448;2022-08-05T13:17:06;7.72;;;6.93;;
28266;SDS011;15525;45.568;5.448;2022-08-05T13:19:32;9.75;;;7.25;;
28266;SDS011;15525;45.568;5.448;2022-08-05T13:21:57;8.30;;;6.88;;
28266;SDS011;15525;45.568;5.448;2022-08-05T13:24:23;7.82;;;6.90;;
28266;SDS011;15525;45.568;5.448;2022-08-05T13:26:49;8.85;;;7.10;;
28266;SDS011;15525;45.568;5.448;2022-08-05T13:29:15;9.48;;;6.75;;
28266;SDS011;15525;45.568;5.448;2022-08-05T13:31:41;8.10;;;7.40;;
28266;SDS011;15525;45.568;5.448;2022-08-05T13:34:08;7.90;;;6.80;;
28266;SDS011;15525;45.568;5.448;2022-08-05T13:36:34;10.57;;;6.90;;
28266;SDS011;15525;45.568;5.448;2022-08-05T13:39:01;7.82;;;7.10;;
28266;SDS011;15525;45.568;5.448;2022-08-05T13:41:27;8.48;;;7.03;;
28266;SDS011;15525;45.568;5.448;2022-08-05T13:43:52;7.10;;;6.30;;
28266;SDS011;15525;45.568;5.448;2022-08-05T13:46:18;7.95;;;6.80;;
28266;SDS011;15525;45.568;5.448;2022-08-05T13:48:44;7.82;;;6.57;;
28266;SDS011;15525;45.568;5.448;2022-08-05T13:51:10;10.50;;;6.82;;
28266;SDS011;15525;45.568;5.448;2022-08-05T13:53:40;6.40;;;5.80;;
28266;SDS011;15525;45.568;5.448;2022-08-05T13:56:06;8.30;;;6.15;;
28266;SDS011;15525;45.568;5.448;2022-08-05T13:58:32;7.10;;;6.40;;
28266;SDS011;15525;45.568;5.448;2022-08-05T14:00:59;8.45;;;6.18;;
28266;SDS011;15525;45.568;5.448;2022-08-05T14:03:24;7.40;;;6.03;;
28266;SDS011;15525;45.568;5.448;2022-08-05T14:05:52;8.07;;;6.22;;
28266;SDS011;15525;45.568;5.448;2022-08-05T14:08:18;6.78;;;6.18;;
28266;SDS011;15525;45.568;5.448;2022-08-05T14:10:43;6.80;;;6.20;;
28266;SDS011;15525;45.568;5.448;2022-08-05T14:13:09;6.57;;;6.03;;
28266;SDS011;15525;45.568;5.448;2022-08-05T14:15:34;7.75;;;6.30;;
28266;SDS011;15525;45.568;5.448;2022-08-05T14:18:00;9.70;;;6.72;;
28266;SDS011;15525;45.568;5.448;2022-08-05T14:20:27;7.22;;;6.40;;
28266;SDS011;15525;45.568;5.448;2022-08-05T14:22:53;10.43;;;6.35;;
28266;SDS011;15525;45.568;5.448;2022-08-05T14:25:19;7.72;;;6.47;;
28266;SDS011;15525;45.568;5.448;2022-08-05T14:27:46;8.82;;;6.32;;
28266;SDS011;15525;45.568;5.448;2022-08-05T14:30:15;7.20;;;6.30;;
28266;SDS011;15525;45.568;5.448;2022-08-05T14:32:42;7.88;;;6.18;;
28266;SDS011;15525;45.568;5.448;2022-08-05T14:35:08;6.80;;;6.20;;
28266;SDS011;15525;45.568;5.448;2022-08-05T14:37:33;6.65;;;5.90;;
28266;SDS011;15525;45.568;5.448;2022-08-05T14:39:59;9.35;;;5.97;;
28266;SDS011;15525;45.568;5.448;2022-08-05T14:42:24;8.32;;;5.85;;
28266;SDS011;15525;45.568;5.448;2022-08-05T14:44:50;6.65;;;5.47;;
28266;SDS011;15525;45.568;5.448;2022-08-05T14:47:15;9.82;;;5.75;;
28266;SDS011;15525;45.568;5.448;2022-08-05T14:49:41;7.85;;;6.00;;
28266;SDS011;15525;45.568;5.448;2022-08-05T14:52:06;6.25;;;5.75;;
28266;SDS011;15525;45.568;5.448;2022-08-05T14:54:32;6.75;;;5.43;;
28266;SDS011;15525;45.568;5.448;2022-08-05T14:56:57;9.45;;;5.80;;
28266;SDS011;15525;45.568;5.448;2022-08-05T14:59:23;6.28;;;5.78;;
28266;SDS011;15525;45.568;5.448;2022-08-05T15:01:49;8.85;;;6.22;;
28266;SDS011;15525;45.568;5.448;2022-08-05T15:04:15;7.50;;;5.47;;
28266;SDS011;15525;45.568;5.448;2022-08-05T15:06:41;7.80;;;5.88;;
28266;SDS011;15525;45.568;5.448;2022-08-05T15:09:06;9.55;;;6.00;;
28266;SDS011;15525;45.568;5.448;2022-08-05T15:11:32;12.45;;;6.43;;
28266;SDS011;15525;45.568;5.448;2022-08-05T15:13:59;8.48;;;5.95;;
28266;SDS011;15525;45.568;5.448;2022-08-05T15:16:24;7.13;;;5.82;;
28266;SDS011;15525;45.568;5.448;2022-08-05T15:18:50;6.18;;;5.60;;
28266;SDS011;15525;45.568;5.448;2022-08-05T15:21:15;8.13;;;5.45;;
28266;SDS011;15525;45.568;5.448;2022-08-05T15:23:41;7.88;;;5.50;;
28266;SDS011;15525;45.568;5.448;2022-08-05T15:26:06;5.95;;;5.32;;
28266;SDS011;15525;45.568;5.448;2022-08-05T15:28:31;7.90;;;5.38;;
28266;SDS011;15525;45.568;5.448;2022-08-05T15:30:57;7.97;;;5.22;;
28266;SDS011;15525;45.568;5.448;2022-08-05T15:33:22;7.82;;;5.55;;
28266;SDS011;15525;45.568;5.448;2022-08-05T15:35:48;6.18;;;5.05;;
28266;SDS011;15525;45.568;5.448;2022-08-05T15:38:13;7.15;;;5.40;;
28266;SDS011;15525;45.568;5.448;2022-08-05T15:40:39;11.23;;;5.40;;
28266;SDS011;15525;45.568;5.448;2022-08-05T15:43:04;6.53;;;5.93;;
28266;SDS011;15525;45.568;5.448;2022-08-05T15:45:30;7.40;;;5.50;;
28266;SDS011;15525;45.568;5.448;2022-08-05T15:47:55;6.55;;;5.25;;